createdAt,value
2022-12-28T00:02:20.530Z,1.50
2022-12-28T00:04:48.129Z,1.63
2022-12-28T00:07:15.545Z,1.23
2022-12-28T00:09:43.043Z,1.35
2022-12-28T00:12:10.535Z,0.40
2022-12-28T00:14:38.089Z,0.40
2022-12-28T00:17:05.306Z,1.10
2022-12-28T00:19:34.160Z,1.13
2022-12-28T00:22:01.664Z,0.05
2022-12-28T00:24:28.985Z,1.63
2022-12-28T00:26:57.046Z,2.00
2022-12-28T00:29:24.656Z,0.75
2022-12-28T00:31:52.160Z,0.73
2022-12-28T00:34:24.040Z,0.40
2022-12-28T00:37:10.260Z,1.05
2022-12-28T00:39:41.597Z,2.30
2022-12-28T00:42:09.257Z,1.08
2022-12-28T00:44:37.850Z,0.82
2022-12-28T00:47:05.198Z,1.85
2022-12-28T00:49:32.657Z,1.05
2022-12-28T00:52:02.192Z,1.08
2022-12-28T00:54:29.519Z,1.55
2022-12-28T00:56:57.070Z,0.93
2022-12-28T00:59:24.424Z,0.70
2022-12-28T01:01:51.903Z,1.67
2022-12-28T01:04:19.302Z,1.75
2022-12-28T01:06:48.105Z,0.95
2022-12-28T01:09:16.942Z,2.33
2022-12-28T01:11:44.268Z,2.15
2022-12-28T01:14:11.676Z,1.02
2022-12-28T01:16:39.712Z,0.20
2022-12-28T01:19:19.039Z,0.85
2022-12-28T01:21:48.546Z,1.30
2022-12-28T01:24:18.534Z,1.13
2022-12-28T01:26:45.886Z,0.80
2022-12-28T01:29:13.247Z,2.17
2022-12-28T01:31:40.539Z,1.30
2022-12-28T01:34:08.094Z,1.00
2022-12-28T01:36:35.566Z,1.52
2022-12-28T01:39:06.043Z,0.90
2022-12-28T01:41:40.665Z,1.10
2022-12-28T01:44:39.955Z,2.35
2022-12-28T01:47:20.242Z,1.88
2022-12-28T01:49:54.365Z,1.92
2022-12-28T01:52:28.343Z,1.52
2022-12-28T01:55:00.510Z,0.68
2022-12-28T01:57:31.784Z,2.17
2022-12-28T02:00:04.343Z,1.83
2022-12-28T02:02:46.066Z,1.23
2022-12-28T02:05:14.548Z,1.67
2022-12-28T02:07:47.964Z,3.10
2022-12-28T02:10:40.801Z,1.00
2022-12-28T02:13:05.625Z,0.90
2022-12-28T02:15:33.113Z,1.67
2022-12-28T02:18:01.038Z,0.65
2022-12-28T02:20:39.636Z,1.35
2022-12-28T02:23:38.533Z,1.10
2022-12-28T02:26:45.470Z,2.88
2022-12-28T02:29:35.005Z,2.88
2022-12-28T02:32:11.269Z,2.35
2022-12-28T02:34:47.996Z,2.55
2022-12-28T02:37:19.937Z,1.08
2022-12-28T02:39:51.986Z,1.83
2022-12-28T02:42:21.006Z,1.88
2022-12-28T02:45:08.760Z,2.05
2022-12-28T02:47:55.371Z,2.17
2022-12-28T02:50:29.352Z,1.38
2022-12-28T02:53:34.687Z,1.05
2022-12-28T02:56:15.462Z,1.27
2022-12-28T02:59:26.892Z,1.38
2022-12-28T03:02:19.561Z,0.00
2022-12-28T03:05:08.714Z,1.55
2022-12-28T03:08:04.020Z,1.15
2022-12-28T03:10:41.124Z,1.83
2022-12-28T03:13:33.153Z,1.08
2022-12-28T03:16:05.485Z,1.05
2022-12-28T03:18:56.503Z,1.75
2022-12-28T03:21:46.421Z,1.33
2022-12-28T03:24:35.418Z,1.45
2022-12-28T03:27:26.605Z,1.73
2022-12-28T03:30:19.653Z,2.30
2022-12-28T03:32:49.705Z,2.97
2022-12-28T03:35:21.857Z,0.15
2022-12-28T03:37:56.419Z,3.42
2022-12-28T03:40:31.526Z,3.55
2022-12-28T03:43:23.170Z,1.23
2022-12-28T03:45:57.675Z,2.03
2022-12-28T03:48:25.806Z,4.55
2022-12-28T03:50:55.321Z,0.20
2022-12-28T03:53:28.382Z,1.52
2022-12-28T03:56:09.747Z,2.97
2022-12-28T04:01:06.351Z,3.05
2022-12-28T04:03:34.943Z,3.72
2022-12-28T04:06:04.978Z,2.65
2022-12-28T04:08:33.697Z,1.42
2022-12-28T04:11:02.055Z,4.40
2022-12-28T04:13:30.840Z,3.60
2022-12-28T04:16:09.769Z,3.33
2022-12-28T04:18:38.247Z,2.28
2022-12-28T04:21:07.078Z,2.38
2022-12-28T04:23:34.945Z,1.90
2022-12-28T04:26:16.234Z,2.67
2022-12-28T04:28:45.545Z,2.88
2022-12-28T04:31:31.787Z,2.92
2022-12-28T04:34:12.122Z,1.15
2022-12-28T04:36:45.603Z,2.15
2022-12-28T04:39:15.495Z,1.55
2022-12-28T04:41:42.755Z,1.40
2022-12-28T04:44:10.016Z,1.77
2022-12-28T04:46:37.523Z,1.83
2022-12-28T04:49:05.041Z,2.42
2022-12-28T04:51:34.020Z,1.58
2022-12-28T04:54:02.727Z,3.40
2022-12-28T04:56:30.053Z,2.38
2022-12-28T04:58:59.304Z,2.72
2022-12-28T05:01:26.899Z,4.80
2022-12-28T05:03:57.981Z,1.55
2022-12-28T05:06:28.214Z,2.53
2022-12-28T05:08:56.251Z,2.28
2022-12-28T05:11:27.504Z,3.35
2022-12-28T05:13:55.044Z,2.90
2022-12-28T05:16:25.254Z,2.78
2022-12-28T05:18:52.994Z,2.58
2022-12-28T05:21:22.236Z,4.32
2022-12-28T05:23:50.471Z,4.30
2022-12-28T05:26:19.707Z,2.72
2022-12-28T05:28:48.955Z,1.60
2022-12-28T05:31:18.499Z,4.80
2022-12-28T05:33:46.923Z,2.58
2022-12-28T05:36:16.926Z,3.63
2022-12-28T05:38:45.097Z,1.92
2022-12-28T05:41:14.992Z,2.72
2022-12-28T05:43:43.034Z,2.42
2022-12-28T05:46:13.711Z,4.18
2022-12-28T05:48:42.690Z,1.92
2022-12-28T05:51:12.827Z,2.75
2022-12-28T05:53:41.328Z,2.95
2022-12-28T05:56:14.368Z,2.75
2022-12-28T05:58:42.812Z,4.93
2022-12-28T06:01:14.214Z,2.83
2022-12-28T06:03:42.465Z,2.55
2022-12-28T06:06:11.984Z,2.03
2022-12-28T06:08:39.945Z,3.08
2022-12-28T06:11:09.612Z,2.50
2022-12-28T06:13:37.963Z,3.38
2022-12-28T06:16:07.256Z,2.33
2022-12-28T06:18:36.220Z,1.02
2022-12-28T06:21:05.327Z,2.28
2022-12-28T06:23:32.894Z,4.22
2022-12-28T06:26:01.021Z,2.83
2022-12-28T06:28:28.861Z,3.33
2022-12-28T06:31:03.021Z,2.95
2022-12-28T06:33:30.900Z,2.22
2022-12-28T06:35:59.634Z,4.57
2022-12-28T06:38:32.614Z,3.67
2022-12-28T06:43:43.085Z,3.88
2022-12-28T06:46:11.452Z,1.55
2022-12-28T06:48:39.642Z,4.05
2022-12-28T06:51:12.413Z,2.63
2022-12-28T06:53:40.219Z,3.50
2022-12-28T06:56:10.628Z,2.42
2022-12-28T06:58:38.230Z,3.40
2022-12-28T07:01:07.846Z,2.75
2022-12-28T07:03:35.480Z,2.17
2022-12-28T07:06:03.589Z,2.80
2022-12-28T07:08:32.668Z,4.90
2022-12-28T07:11:04.709Z,4.32
2022-12-28T07:13:32.189Z,3.53
2022-12-28T07:16:02.431Z,3.08
2022-12-28T07:18:29.998Z,5.40
2022-12-28T07:21:01.958Z,3.58
2022-12-28T07:23:31.457Z,4.57
2022-12-28T07:26:06.079Z,7.00
2022-12-28T07:28:33.722Z,4.95
2022-12-28T07:31:05.902Z,5.82
2022-12-28T07:33:35.067Z,6.20
2022-12-28T07:36:02.755Z,7.60
2022-12-28T07:38:30.105Z,8.43
2022-12-28T07:41:03.283Z,7.90
2022-12-28T07:46:02.579Z,3.95
2022-12-28T07:48:31.615Z,3.78
2022-12-28T07:50:59.135Z,2.15
2022-12-28T07:53:26.557Z,1.15
2022-12-28T07:55:57.445Z,3.63
2022-12-28T07:58:26.577Z,3.08
2022-12-28T08:00:53.834Z,1.55
2022-12-28T08:03:21.311Z,3.60
2022-12-28T08:05:48.558Z,4.07
2022-12-28T08:08:15.865Z,2.22
2022-12-28T08:10:43.248Z,2.47
2022-12-28T08:13:10.530Z,5.10
2022-12-28T08:15:39.364Z,4.95
2022-12-28T08:18:06.834Z,3.55
2022-12-28T08:20:34.183Z,4.97
2022-12-28T08:23:01.774Z,4.15
2022-12-28T08:25:29.250Z,6.40
2022-12-28T08:27:56.508Z,4.25
2022-12-28T08:30:23.694Z,4.60
2022-12-28T08:32:52.676Z,5.75
2022-12-28T08:35:19.918Z,5.78
2022-12-28T08:37:47.206Z,5.35
2022-12-28T08:40:14.594Z,4.28
2022-12-28T08:42:42.013Z,3.80
2022-12-28T08:45:09.934Z,3.13
2022-12-28T08:47:37.285Z,4.28
2022-12-28T08:50:07.786Z,5.00
2022-12-28T08:52:35.379Z,4.28
2022-12-28T08:55:02.871Z,4.78
2022-12-28T08:57:30.623Z,4.50
2022-12-28T08:59:57.913Z,4.50
2022-12-28T09:02:25.391Z,4.85
2022-12-28T09:04:52.679Z,4.82
2022-12-28T09:07:21.416Z,3.97
2022-12-28T09:09:48.795Z,4.78
2022-12-28T09:12:16.065Z,4.28
2022-12-28T09:14:43.326Z,5.18
2022-12-28T09:17:10.602Z,2.80
2022-12-28T09:19:38.050Z,3.97
2022-12-28T09:22:05.349Z,3.45
2022-12-28T09:24:34.075Z,3.70
2022-12-28T09:27:01.414Z,5.32
2022-12-28T09:29:28.799Z,3.00
2022-12-28T09:31:58.029Z,4.07
2022-12-28T09:34:36.124Z,5.05
2022-12-28T09:37:05.503Z,4.30
2022-12-28T09:39:34.685Z,3.97
2022-12-28T09:42:05.822Z,3.33
2022-12-28T09:45:02.552Z,4.18
2022-12-28T09:47:38.289Z,5.60
2022-12-28T09:50:30.151Z,3.80
2022-12-28T09:53:21.942Z,3.17
2022-12-28T09:55:58.151Z,3.63
2022-12-28T09:58:25.673Z,3.72
2022-12-28T10:00:56.149Z,3.47
2022-12-28T10:03:27.059Z,3.40
2022-12-28T10:05:57.275Z,3.38
2022-12-28T10:08:26.329Z,1.40
2022-12-28T10:10:59.772Z,2.67
2022-12-28T10:16:21.411Z,1.65
2022-12-28T10:18:50.124Z,5.57
2022-12-28T10:21:20.053Z,4.75
2022-12-28T10:24:29.267Z,2.67
2022-12-28T10:26:39.198Z,3.97
2022-12-28T10:29:14.287Z,3.75
2022-12-28T10:31:41.627Z,4.95
2022-12-28T10:34:14.817Z,3.63
2022-12-28T10:36:42.820Z,4.35
2022-12-28T10:39:17.696Z,4.80
2022-12-28T10:41:48.541Z,4.65
2022-12-28T10:44:38.950Z,2.67
2022-12-28T10:47:17.292Z,1.88
2022-12-28T10:50:10.563Z,4.13
2022-12-28T10:52:38.199Z,4.53
2022-12-28T10:55:27.857Z,4.13
2022-12-28T10:58:28.082Z,2.63
2022-12-28T11:00:54.614Z,3.65
2022-12-28T11:03:26.223Z,3.60
2022-12-28T11:06:09.796Z,4.30
2022-12-28T11:08:37.408Z,2.25
2022-12-28T11:11:05.002Z,3.63
2022-12-28T11:13:34.292Z,2.05
2022-12-28T11:16:01.623Z,2.33
2022-12-28T11:18:34.633Z,5.50
2022-12-28T11:21:03.699Z,4.80
2022-12-28T11:23:32.957Z,2.40
2022-12-28T11:26:01.308Z,2.63
2022-12-28T11:28:28.718Z,3.55
2022-12-28T11:30:58.008Z,5.05
2022-12-28T11:33:32.173Z,3.58
2022-12-28T11:36:02.524Z,4.93
2022-12-28T11:38:40.744Z,4.22
2022-12-28T11:41:11.336Z,2.15
2022-12-28T11:43:49.988Z,4.20
2022-12-28T11:46:41.075Z,2.42
2022-12-28T11:49:31.230Z,2.97
2022-12-28T11:52:34.374Z,2.78
2022-12-28T11:55:22.935Z,4.35
2022-12-28T11:57:50.661Z,3.60
2022-12-28T12:00:47.461Z,2.92
2022-12-28T12:03:16.169Z,2.60
2022-12-28T12:05:53.440Z,3.72
2022-12-28T12:08:41.844Z,3.80
2022-12-28T12:11:31.045Z,3.38
2022-12-28T12:14:00.911Z,4.15
2022-12-28T12:16:35.944Z,3.70
2022-12-28T12:19:09.106Z,4.40
2022-12-28T12:21:40.535Z,4.07
2022-12-28T12:24:18.778Z,0.82
2022-12-28T12:26:50.977Z,3.60
2022-12-28T12:29:22.889Z,3.63
2022-12-28T12:32:00.327Z,2.42
2022-12-28T12:34:40.252Z,2.47
2022-12-28T12:37:44.634Z,2.05
2022-12-28T12:40:46.055Z,2.17
2022-12-28T12:43:34.696Z,2.78
2022-12-28T12:46:26.524Z,3.33
2022-12-28T12:49:16.610Z,2.72
2022-12-28T12:51:53.154Z,2.63
2022-12-28T12:54:33.930Z,2.92
2022-12-28T12:57:07.348Z,3.53
2022-12-28T12:59:54.519Z,3.00
2022-12-28T13:02:42.491Z,1.88
2022-12-28T13:05:17.616Z,3.45
2022-12-28T13:07:46.562Z,2.80
2022-12-28T13:10:18.301Z,2.30
2022-12-28T13:12:45.649Z,2.83
2022-12-28T13:15:17.491Z,2.38
2022-12-28T13:18:11.312Z,2.30
2022-12-28T13:20:56.976Z,2.03
2022-12-28T13:23:27.258Z,2.33
2022-12-28T13:25:58.085Z,1.27
2022-12-28T13:28:30.495Z,1.88
2022-12-28T13:31:09.113Z,2.85
2022-12-28T13:33:37.123Z,2.05
2022-12-28T13:36:22.250Z,2.80
2022-12-28T13:39:04.075Z,3.20
2022-12-28T13:41:35.127Z,0.65
2022-12-28T13:44:29.289Z,1.80
2022-12-28T13:47:03.559Z,3.15
2022-12-28T13:49:36.545Z,1.60
2022-12-28T13:54:36.933Z,2.08
2022-12-28T13:57:44.538Z,2.17
2022-12-28T13:59:55.661Z,2.97
2022-12-28T14:02:24.746Z,1.73
2022-12-28T14:04:54.888Z,1.40
2022-12-28T14:07:26.794Z,1.08
2022-12-28T14:09:56.312Z,2.35
2022-12-28T14:12:24.724Z,1.00
2022-12-28T14:14:52.872Z,2.45
2022-12-28T14:17:22.129Z,1.42
2022-12-28T14:19:50.647Z,0.90
2022-12-28T14:22:31.899Z,1.20
2022-12-28T14:25:02.441Z,3.03
2022-12-28T14:27:36.393Z,1.35
2022-12-28T14:30:06.885Z,0.52
2022-12-28T14:32:42.315Z,2.38
2022-12-28T14:35:19.017Z,0.82
2022-12-28T14:37:51.613Z,1.85
2022-12-28T14:40:28.303Z,2.67
2022-12-28T14:42:56.775Z,0.35
2022-12-28T14:46:07.039Z,2.25
2022-12-28T14:48:32.970Z,1.02
2022-12-28T14:51:02.807Z,2.20
2022-12-28T14:53:31.304Z,2.17
2022-12-28T14:56:04.856Z,1.48
2022-12-28T14:58:39.507Z,2.28
2022-12-28T15:01:11.005Z,1.10
2022-12-28T15:03:54.191Z,2.00
2022-12-28T15:06:22.669Z,3.05
2022-12-28T15:08:50.619Z,2.53
2022-12-28T15:11:20.859Z,2.15
2022-12-28T15:13:48.885Z,2.17
2022-12-28T15:16:17.827Z,1.95
2022-12-28T15:18:45.712Z,2.60
2022-12-28T15:21:14.675Z,1.02
2022-12-28T15:23:41.932Z,1.45
2022-12-28T15:26:09.610Z,2.38
2022-12-28T15:28:38.859Z,3.50
2022-12-28T15:31:07.067Z,1.30
2022-12-28T15:33:35.356Z,2.42
2022-12-28T15:36:04.073Z,2.22
2022-12-28T15:38:31.490Z,1.98
2022-12-28T15:40:59.506Z,1.80
2022-12-28T15:43:26.843Z,2.45
2022-12-28T15:45:56.305Z,1.60
2022-12-28T15:48:23.836Z,2.20
2022-12-28T15:50:51.464Z,2.22
2022-12-28T15:53:19.177Z,2.15
2022-12-28T15:55:58.579Z,1.10
2022-12-28T15:58:25.898Z,0.75
2022-12-28T16:00:53.512Z,1.75
2022-12-28T16:03:36.096Z,2.28
2022-12-28T16:06:04.094Z,2.10
2022-12-28T16:08:31.639Z,2.38
2022-12-28T16:11:07.979Z,2.33
2022-12-28T16:13:35.246Z,1.85
2022-12-28T16:16:05.854Z,2.42
2022-12-28T16:18:33.069Z,1.83
2022-12-28T16:21:04.161Z,1.73
2022-12-28T16:23:32.555Z,1.67
2022-12-28T16:25:59.804Z,1.02
2022-12-28T16:28:28.541Z,1.33
2022-12-28T16:30:56.889Z,2.15
2022-12-28T16:33:24.726Z,2.20
2022-12-28T16:35:57.713Z,1.98
2022-12-28T16:38:28.996Z,1.48
2022-12-28T16:40:56.832Z,0.75
2022-12-28T16:43:24.478Z,0.98
2022-12-28T16:45:51.775Z,1.42
2022-12-28T16:48:19.248Z,0.75
2022-12-28T16:50:57.576Z,0.25
2022-12-28T16:53:25.146Z,1.98
2022-12-28T16:55:53.987Z,2.15
2022-12-28T16:58:21.434Z,1.45
2022-12-28T17:00:48.767Z,2.05
2022-12-28T17:03:16.060Z,0.90
2022-12-28T17:05:43.483Z,1.55
2022-12-28T17:08:11.176Z,1.98
2022-12-28T17:10:41.229Z,1.20
2022-12-28T17:13:09.985Z,0.95
2022-12-28T17:15:39.755Z,2.15
2022-12-28T17:18:07.610Z,0.68
2022-12-28T17:20:36.885Z,1.77
2022-12-28T17:23:04.529Z,0.90
2022-12-28T17:25:32.022Z,1.50
2022-12-28T17:27:59.714Z,0.32
2022-12-28T17:30:28.550Z,1.55
2022-12-28T17:32:56.685Z,1.15
2022-12-28T17:35:24.195Z,1.75
2022-12-28T17:37:51.584Z,1.10
2022-12-28T17:40:19.876Z,1.33
2022-12-28T17:42:47.318Z,0.63
2022-12-28T17:45:14.640Z,1.20
2022-12-28T17:47:43.383Z,2.75
2022-12-28T17:50:10.832Z,0.88
2022-12-28T17:52:38.184Z,1.25
2022-12-28T17:55:06.130Z,1.50
2022-12-28T17:57:38.430Z,0.52
2022-12-28T18:00:07.056Z,1.27
2022-12-28T18:02:40.101Z,1.13
2022-12-28T18:05:09.822Z,1.02
2022-12-28T18:07:37.127Z,0.63
2022-12-28T18:10:05.439Z,1.38
2022-12-28T18:12:32.672Z,0.50
2022-12-28T18:15:00.170Z,0.43
2022-12-28T18:17:27.982Z,1.13
2022-12-28T18:19:56.041Z,0.65
2022-12-28T18:22:25.063Z,0.25
2022-12-28T18:24:53.715Z,1.10
2022-12-28T18:27:21.217Z,1.45
2022-12-28T18:29:48.516Z,1.95
2022-12-28T18:32:15.941Z,0.93
2022-12-28T18:34:43.450Z,0.90
2022-12-28T18:37:10.986Z,0.95
2022-12-28T18:39:39.645Z,1.23
2022-12-28T18:42:06.911Z,1.02
2022-12-28T18:44:34.406Z,0.93
2022-12-28T18:47:01.801Z,0.70
2022-12-28T18:49:30.354Z,0.93
2022-12-28T18:51:57.972Z,1.23
2022-12-28T18:54:25.269Z,1.00
2022-12-28T18:56:53.990Z,1.50
2022-12-28T18:59:21.380Z,1.20
2022-12-28T19:02:06.371Z,1.05
2022-12-28T19:04:34.759Z,1.40
2022-12-28T19:07:02.247Z,1.25
2022-12-28T19:09:29.503Z,0.63
2022-12-28T19:11:59.216Z,1.40
2022-12-28T19:14:26.499Z,0.32
2022-12-28T19:16:53.836Z,0.82
2022-12-28T19:19:21.560Z,0.95
2022-12-28T19:21:53.658Z,1.35
2022-12-28T19:24:23.995Z,1.77
2022-12-28T19:26:51.434Z,0.50
2022-12-28T19:29:20.036Z,0.85
2022-12-28T19:31:47.559Z,1.17
2022-12-28T19:34:15.949Z,0.17
2022-12-28T19:36:43.214Z,0.60
2022-12-28T19:39:11.310Z,0.75
2022-12-28T19:41:39.936Z,0.65
2022-12-28T19:44:07.166Z,1.20
2022-12-28T19:46:36.167Z,0.70
2022-12-28T19:49:04.978Z,1.35
2022-12-28T19:51:33.466Z,1.25
2022-12-28T19:54:01.543Z,1.27
2022-12-28T19:56:29.159Z,0.82
2022-12-28T19:59:03.094Z,0.32
2022-12-28T20:01:33.830Z,1.15
2022-12-28T20:04:08.739Z,0.43
2022-12-28T20:06:39.796Z,0.88
2022-12-28T20:09:07.050Z,0.80
2022-12-28T20:11:34.280Z,0.77
2022-12-28T20:14:03.443Z,1.08
2022-12-28T20:16:33.208Z,0.82
2022-12-28T20:19:03.070Z,0.20
2022-12-28T20:21:30.645Z,0.80
2022-12-28T20:23:58.072Z,1.67
2022-12-28T20:26:27.139Z,0.90
2022-12-28T20:28:54.886Z,0.73
2022-12-28T20:31:22.994Z,0.63
2022-12-28T20:33:51.035Z,1.25
2022-12-28T20:36:21.469Z,0.68
2022-12-28T20:38:48.850Z,1.20
2022-12-28T20:41:36.433Z,0.85
2022-12-28T20:44:06.190Z,1.25
2022-12-28T20:46:33.876Z,0.63
2022-12-28T20:49:01.462Z,1.73
2022-12-28T20:51:30.177Z,0.20
2022-12-28T20:53:57.569Z,0.22
2022-12-28T20:56:25.010Z,1.50
2022-12-28T20:58:52.269Z,0.85
2022-12-28T21:01:20.109Z,1.38
2022-12-28T21:03:47.567Z,0.73
2022-12-28T21:06:15.068Z,0.90
2022-12-28T21:08:44.133Z,0.32
2022-12-28T21:11:11.438Z,0.75
2022-12-28T21:13:43.964Z,1.05
2022-12-28T21:16:12.648Z,1.10
2022-12-28T21:18:40.095Z,0.93
2022-12-28T21:21:14.151Z,0.85
2022-12-28T21:23:41.818Z,0.75
2022-12-28T21:26:13.722Z,0.35
2022-12-28T21:28:41.513Z,1.38
2022-12-28T21:31:10.507Z,0.75
2022-12-28T21:33:38.248Z,1.45
2022-12-28T21:36:08.187Z,0.15
2022-12-28T21:38:37.499Z,0.13
2022-12-28T21:41:06.915Z,1.10
2022-12-28T21:43:36.206Z,0.38
2022-12-28T21:46:05.810Z,1.13
2022-12-28T21:48:34.107Z,1.48
2022-12-28T21:51:28.732Z,0.68
2022-12-28T21:53:56.189Z,0.77
2022-12-28T21:56:24.010Z,1.05
2022-12-28T21:58:52.768Z,0.35
2022-12-28T22:01:38.787Z,1.48
2022-12-28T22:04:24.983Z,0.60
2022-12-28T22:09:38.423Z,0.60
2022-12-28T22:12:25.090Z,0.22
2022-12-28T22:15:13.779Z,0.45
2022-12-28T22:17:41.473Z,0.22
2022-12-28T22:20:11.640Z,0.90
2022-12-28T22:22:39.689Z,1.08
2022-12-28T22:25:07.694Z,0.73
2022-12-28T22:27:35.017Z,1.25
2022-12-28T22:30:04.097Z,1.15
2022-12-28T22:32:31.843Z,0.60
2022-12-28T22:34:59.379Z,0.75
2022-12-28T22:37:27.049Z,0.43
2022-12-28T22:39:54.296Z,0.28
2022-12-28T22:42:21.692Z,0.52
2022-12-28T22:44:49.067Z,1.10
2022-12-28T22:47:17.961Z,0.80
2022-12-28T22:49:45.541Z,0.20
2022-12-28T22:52:12.932Z,0.70
2022-12-28T22:54:40.174Z,0.30
2022-12-28T22:57:07.437Z,0.55
2022-12-28T22:59:34.839Z,0.75
2022-12-28T23:02:02.642Z,0.80
2022-12-28T23:04:31.504Z,0.28
2022-12-28T23:07:03.571Z,0.45
2022-12-28T23:09:31.640Z,0.95
2022-12-28T23:11:59.388Z,0.32
2022-12-28T23:14:45.745Z,0.00
2022-12-28T23:17:15.611Z,0.65
2022-12-28T23:20:04.790Z,0.43
2022-12-28T23:22:53.408Z,0.55
2022-12-28T23:25:41.754Z,0.43
2022-12-28T23:28:11.373Z,1.13
2022-12-28T23:30:42.015Z,1.42
2022-12-28T23:33:10.039Z,0.17
2022-12-28T23:35:39.040Z,0.73
2022-12-28T23:38:06.454Z,0.10
2022-12-28T23:40:33.998Z,0.75
2022-12-28T23:43:01.248Z,0.50
2022-12-28T23:45:28.753Z,0.35
2022-12-28T23:47:56.131Z,0.60
2022-12-28T23:50:23.428Z,0.40
2022-12-28T23:52:52.253Z,0.40
2022-12-28T23:55:19.679Z,0.40
2022-12-28T23:57:47.062Z,0.25
